createdAt,value
2023-05-09T00:00:41.180Z,961.00
2023-05-09T00:01:41.265Z,963.00
2023-05-09T00:02:41.395Z,955.00
2023-05-09T00:03:41.377Z,946.00
2023-05-09T00:04:41.481Z,969.00
2023-05-09T00:05:41.436Z,955.00
2023-05-09T00:06:41.472Z,982.00
2023-05-09T00:07:41.520Z,960.00
2023-05-09T00:08:41.590Z,958.00
2023-05-09T00:09:41.650Z,947.00
2023-05-09T00:10:41.656Z,947.00
2023-05-09T00:11:41.761Z,936.00
2023-05-09T00:12:41.903Z,959.00
2023-05-09T00:13:41.911Z,964.00
2023-05-09T00:14:41.918Z,967.00
2023-05-09T00:15:41.959Z,951.00
2023-05-09T00:16:42.043Z,942.00
2023-05-09T00:17:42.128Z,956.00
2023-05-09T00:18:42.255Z,936.00
2023-05-09T00:19:42.226Z,932.00
2023-05-09T00:20:42.288Z,931.00
2023-05-09T00:21:42.395Z,967.00
2023-05-09T00:22:42.409Z,973.00
2023-05-09T00:23:42.945Z,936.00
2023-05-09T00:24:42.525Z,965.00
2023-05-09T00:25:42.580Z,959.00
2023-05-09T00:26:42.614Z,926.00
2023-05-09T00:27:42.678Z,939.00
2023-05-09T00:28:42.863Z,953.00
2023-05-09T00:29:42.779Z,942.00
2023-05-09T00:30:42.877Z,966.00
2023-05-09T00:31:42.944Z,910.00
2023-05-09T00:32:42.968Z,936.00
2023-05-09T00:33:43.075Z,938.00
2023-05-09T00:34:43.052Z,917.00
2023-05-09T00:35:43.095Z,941.00
2023-05-09T00:36:43.161Z,935.00
2023-05-09T00:37:43.232Z,948.00
2023-05-09T00:38:43.266Z,930.00
2023-05-09T00:39:43.372Z,934.00
2023-05-09T00:40:43.437Z,917.00
2023-05-09T00:41:43.450Z,953.00
2023-05-09T00:42:43.478Z,946.00
2023-05-09T00:43:43.547Z,937.00
2023-05-09T00:44:43.695Z,911.00
2023-05-09T00:45:43.732Z,938.00
2023-05-09T00:46:43.740Z,942.00
2023-05-09T00:47:43.781Z,914.00
2023-05-09T00:48:43.851Z,906.00
2023-05-09T00:49:43.898Z,901.00
2023-05-09T00:50:44.003Z,924.00
2023-05-09T00:51:44.008Z,927.00
2023-05-09T00:52:44.073Z,909.00
2023-05-09T00:53:44.145Z,940.00
2023-05-09T00:54:44.200Z,935.00
2023-05-09T00:55:44.227Z,925.00
2023-05-09T00:56:44.295Z,925.00
2023-05-09T00:57:44.342Z,923.00
2023-05-09T00:58:44.399Z,932.00
2023-05-09T00:59:44.453Z,925.00
2023-05-09T01:00:44.602Z,942.00
2023-05-09T01:01:44.605Z,897.00
2023-05-09T01:02:44.824Z,905.00
2023-05-09T01:03:44.865Z,931.00
2023-05-09T01:04:44.785Z,919.00
2023-05-09T01:05:44.823Z,926.00
2023-05-09T01:06:44.904Z,908.00
2023-05-09T01:07:44.943Z,928.00
2023-05-09T01:08:44.999Z,907.00
2023-05-09T01:09:45.060Z,909.00
2023-05-09T01:10:45.120Z,922.00
2023-05-09T01:11:45.177Z,872.00
2023-05-09T01:12:45.246Z,905.00
2023-05-09T01:13:45.299Z,921.00
2023-05-09T01:14:45.363Z,928.00
2023-05-09T01:15:45.579Z,895.00
2023-05-09T01:16:45.637Z,921.00
2023-05-09T01:17:45.635Z,897.00
2023-05-09T01:18:45.645Z,904.00
2023-05-09T01:19:45.671Z,896.00
2023-05-09T01:20:45.755Z,911.00
2023-05-09T01:21:45.810Z,916.00
2023-05-09T01:22:45.867Z,882.00
2023-05-09T01:23:45.933Z,912.00
2023-05-09T01:24:45.982Z,891.00
2023-05-09T01:25:46.086Z,885.00
2023-05-09T01:26:46.103Z,891.00
2023-05-09T01:27:46.158Z,884.00
2023-05-09T01:28:46.229Z,902.00
2023-05-09T01:29:46.292Z,901.00
2023-05-09T01:30:46.329Z,883.00
2023-05-09T01:31:46.530Z,897.00
2023-05-09T01:32:46.607Z,912.00
2023-05-09T01:33:46.521Z,897.00
2023-05-09T01:34:46.625Z,895.00
2023-05-09T01:35:46.676Z,875.00
2023-05-09T01:36:46.697Z,885.00
2023-05-09T01:37:46.751Z,887.00
2023-05-09T01:38:46.819Z,905.00
2023-05-09T01:39:46.860Z,865.00
2023-05-09T01:40:46.939Z,894.00
2023-05-09T01:41:47.496Z,880.00
2023-05-09T01:42:47.057Z,893.00
2023-05-09T01:43:47.154Z,867.00
2023-05-09T01:44:47.197Z,890.00
2023-05-09T01:45:47.259Z,881.00
2023-05-09T01:46:47.316Z,890.00
2023-05-09T01:47:47.373Z,877.00
2023-05-09T01:48:47.495Z,867.00
2023-05-09T01:49:47.477Z,885.00
2023-05-09T01:50:47.554Z,891.00
2023-05-09T01:51:47.614Z,875.00
2023-05-09T01:52:47.655Z,882.00
2023-05-09T01:53:47.725Z,852.00
2023-05-09T01:54:47.799Z,870.00
2023-05-09T01:55:47.825Z,877.00
2023-05-09T01:56:47.896Z,883.00
2023-05-09T01:57:47.941Z,886.00
2023-05-09T01:58:48.002Z,878.00
2023-05-09T01:59:48.049Z,889.00
2023-05-09T02:00:48.184Z,860.00
2023-05-09T02:01:48.252Z,854.00
2023-05-09T02:02:48.410Z,862.00
2023-05-09T02:03:48.298Z,883.00
2023-05-09T02:04:48.440Z,841.00
2023-05-09T02:05:48.439Z,865.00
2023-05-09T02:06:48.497Z,864.00
2023-05-09T02:07:48.527Z,864.00
2023-05-09T02:08:48.599Z,870.00
2023-05-09T02:09:48.653Z,878.00
2023-05-09T02:10:48.743Z,867.00
2023-05-09T02:11:49.000Z,872.00
2023-05-09T02:12:48.903Z,868.00
2023-05-09T02:13:48.910Z,864.00
2023-05-09T02:14:48.958Z,872.00
2023-05-09T02:15:49.040Z,874.00
2023-05-09T02:16:49.182Z,853.00
2023-05-09T02:17:49.199Z,856.00
2023-05-09T02:18:49.193Z,855.00
2023-05-09T02:19:49.274Z,873.00
2023-05-09T02:20:49.438Z,870.00
2023-05-09T02:21:49.425Z,837.00
2023-05-09T02:22:49.443Z,845.00
2023-05-09T02:23:49.501Z,850.00
2023-05-09T02:24:49.551Z,865.00
2023-05-09T02:25:49.625Z,861.00
2023-05-09T02:26:49.676Z,871.00
2023-05-09T02:27:49.720Z,848.00
2023-05-09T02:28:49.791Z,831.00
2023-05-09T02:29:49.841Z,852.00
2023-05-09T02:30:49.907Z,855.00
2023-05-09T02:31:50.110Z,842.00
2023-05-09T02:32:50.069Z,837.00
2023-05-09T02:33:50.096Z,850.00
2023-05-09T02:34:50.150Z,858.00
2023-05-09T02:35:50.231Z,856.00
2023-05-09T02:36:50.369Z,845.00
2023-05-09T02:37:50.342Z,862.00
2023-05-09T02:38:50.414Z,859.00
2023-05-09T02:39:50.461Z,846.00
2023-05-09T02:40:52.456Z,819.00
2023-05-09T02:41:50.578Z,825.00
2023-05-09T02:42:50.632Z,843.00
2023-05-09T02:43:50.708Z,834.00
2023-05-09T02:44:50.782Z,841.00
2023-05-09T02:45:50.964Z,840.00
2023-05-09T02:46:50.861Z,826.00
2023-05-09T02:47:50.966Z,821.00
2023-05-09T02:48:50.984Z,855.00
2023-05-09T02:49:51.043Z,844.00
2023-05-09T02:50:51.097Z,838.00
2023-05-09T02:51:51.172Z,836.00
2023-05-09T02:52:51.321Z,832.00
2023-05-09T02:53:51.308Z,820.00
2023-05-09T02:54:51.346Z,835.00
2023-05-09T02:55:51.433Z,832.00
2023-05-09T02:56:51.490Z,830.00
2023-05-09T02:57:58.864Z,824.00
2023-05-09T02:58:52.557Z,826.00
2023-05-09T02:59:51.511Z,828.00
2023-05-09T03:00:51.508Z,831.00
2023-05-09T03:01:51.553Z,825.00
2023-05-09T03:02:51.601Z,815.00
2023-05-09T03:03:51.589Z,827.00
2023-05-09T03:04:51.481Z,826.00
2023-05-09T03:05:51.486Z,809.00
2023-05-09T03:06:51.564Z,837.00
2023-05-09T03:07:51.590Z,838.00
2023-05-09T03:08:51.724Z,835.00
2023-05-09T03:09:51.690Z,828.00
2023-05-09T03:10:51.796Z,826.00
2023-05-09T03:11:51.824Z,831.00
2023-05-09T03:12:51.923Z,806.00
2023-05-09T03:13:51.936Z,820.00
2023-05-09T03:14:51.998Z,824.00
2023-05-09T03:15:52.080Z,788.00
2023-05-09T03:16:52.082Z,825.00
2023-05-09T03:17:52.193Z,830.00
2023-05-09T03:18:52.224Z,827.00
2023-05-09T03:19:52.268Z,822.00
2023-05-09T03:20:52.322Z,797.00
2023-05-09T03:21:52.394Z,822.00
2023-05-09T03:22:52.456Z,818.00
2023-05-09T03:23:52.536Z,813.00
2023-05-09T03:24:52.677Z,816.00
2023-05-09T03:25:52.684Z,806.00
2023-05-09T03:26:52.696Z,804.00
2023-05-09T03:27:52.783Z,807.00
2023-05-09T03:28:52.833Z,787.00
2023-05-09T03:29:52.878Z,821.00
2023-05-09T03:30:52.986Z,804.00
2023-05-09T03:31:53.076Z,799.00
2023-05-09T03:32:53.083Z,821.00
2023-05-09T03:33:53.083Z,813.00
2023-05-09T03:34:53.152Z,795.00
2023-05-09T03:35:53.183Z,805.00
2023-05-09T03:36:53.240Z,808.00
2023-05-09T03:37:53.307Z,806.00
2023-05-09T03:38:53.397Z,804.00
2023-05-09T03:39:53.396Z,795.00
2023-05-09T03:40:53.543Z,804.00
2023-05-09T03:41:53.493Z,802.00
2023-05-09T03:42:53.560Z,804.00
2023-05-09T03:43:53.619Z,805.00
2023-05-09T03:44:53.697Z,803.00
2023-05-09T03:45:53.740Z,789.00
2023-05-09T03:46:53.794Z,807.00
2023-05-09T03:47:53.896Z,796.00
2023-05-09T03:48:53.882Z,780.00
2023-05-09T03:49:53.932Z,794.00
2023-05-09T03:50:54.031Z,801.00
2023-05-09T03:51:54.045Z,803.00
2023-05-09T03:52:54.108Z,790.00
2023-05-09T03:53:54.151Z,787.00
2023-05-09T03:54:54.211Z,797.00
2023-05-09T03:55:54.259Z,789.00
2023-05-09T03:56:54.389Z,789.00
2023-05-09T03:57:54.431Z,788.00
2023-05-09T03:58:54.430Z,793.00
2023-05-09T03:59:54.493Z,776.00
2023-05-09T04:00:54.533Z,799.00
2023-05-09T04:01:54.680Z,792.00
2023-05-09T04:02:54.721Z,793.00
2023-05-09T04:03:54.729Z,797.00
2023-05-09T04:04:54.765Z,770.00
2023-05-09T04:05:54.876Z,794.00
2023-05-09T04:06:54.869Z,774.00
2023-05-09T04:07:54.944Z,798.00
2023-05-09T04:08:54.991Z,781.00
2023-05-09T04:09:55.056Z,786.00
2023-05-09T04:10:55.106Z,786.00
2023-05-09T04:11:55.172Z,785.00
2023-05-09T04:12:55.413Z,777.00
2023-05-09T04:13:55.275Z,762.00
2023-05-09T04:14:55.375Z,784.00
2023-05-09T04:15:55.478Z,787.00
2023-05-09T04:16:55.481Z,787.00
2023-05-09T04:17:55.576Z,782.00
2023-05-09T04:18:55.620Z,754.00
2023-05-09T04:19:55.638Z,775.00
2023-05-09T04:20:55.715Z,776.00
2023-05-09T04:21:55.768Z,750.00
2023-05-09T04:22:55.846Z,783.00
2023-05-09T04:23:55.876Z,782.00
2023-05-09T04:24:55.939Z,777.00
2023-05-09T04:25:56.521Z,768.00
2023-05-09T04:26:56.072Z,773.00
2023-05-09T04:27:56.136Z,769.00
2023-05-09T04:28:56.256Z,783.00
2023-05-09T04:29:56.245Z,782.00
2023-05-09T04:30:56.348Z,758.00
2023-05-09T04:31:56.499Z,752.00
2023-05-09T04:32:56.466Z,771.00
2023-05-09T04:33:56.474Z,780.00
2023-05-09T04:34:56.528Z,777.00
2023-05-09T04:35:56.564Z,759.00
2023-05-09T04:36:56.618Z,773.00
2023-05-09T04:37:56.659Z,773.00
2023-05-09T04:38:56.710Z,769.00
2023-05-09T04:39:56.792Z,755.00
2023-05-09T04:40:56.831Z,742.00
2023-05-09T04:41:56.833Z,747.00
2023-05-09T04:42:56.905Z,770.00
2023-05-09T04:43:56.960Z,765.00
2023-05-09T04:44:57.083Z,733.00
2023-05-09T04:45:57.080Z,749.00
2023-05-09T04:46:57.144Z,766.00
2023-05-09T04:47:57.270Z,754.00
2023-05-09T04:48:57.224Z,763.00
2023-05-09T04:49:57.343Z,754.00
2023-05-09T04:50:57.310Z,763.00
2023-05-09T04:51:57.377Z,756.00
2023-05-09T04:52:57.431Z,759.00
2023-05-09T04:53:57.457Z,763.00
2023-05-09T04:54:57.530Z,754.00
2023-05-09T04:55:57.564Z,748.00
2023-05-09T04:57:09.827Z,754.00
2023-05-09T04:57:58.609Z,755.00
2023-05-09T04:58:57.560Z,755.00
2023-05-09T04:59:57.670Z,759.00
2023-05-09T05:00:57.624Z,743.00
2023-05-09T05:01:57.585Z,755.00
2023-05-09T05:02:57.650Z,754.00
2023-05-09T05:03:57.545Z,758.00
2023-05-09T05:05:10.170Z,737.00
2023-05-09T05:05:58.555Z,739.00
2023-05-09T05:06:57.528Z,739.00
2023-05-09T05:07:57.533Z,739.00
2023-05-09T05:08:57.506Z,744.00
2023-05-09T05:09:57.485Z,748.00
2023-05-09T05:10:57.524Z,738.00
2023-05-09T05:12:01.790Z,752.00
2023-05-09T05:12:58.497Z,753.00
2023-05-09T05:13:57.462Z,752.00
2023-05-09T05:14:57.495Z,753.00
2023-05-09T05:15:57.489Z,740.00
2023-05-09T05:16:57.534Z,746.00
2023-05-09T05:17:57.550Z,747.00
2023-05-09T05:18:57.443Z,747.00
2023-05-09T05:19:57.436Z,740.00
2023-05-09T05:20:57.407Z,751.00
2023-05-09T05:21:57.417Z,749.00
2023-05-09T05:22:58.103Z,741.00
2023-05-09T05:23:57.522Z,734.00
2023-05-09T05:24:57.559Z,736.00
2023-05-09T05:25:57.598Z,740.00
2023-05-09T05:26:57.654Z,741.00
2023-05-09T05:27:57.682Z,739.00
2023-05-09T05:28:57.759Z,727.00
2023-05-09T05:29:57.775Z,735.00
2023-05-09T05:30:57.817Z,723.00
2023-05-09T05:31:57.994Z,729.00
2023-05-09T05:32:58.068Z,721.00
2023-05-09T05:33:57.957Z,723.00
2023-05-09T05:34:58.037Z,743.00
2023-05-09T05:35:58.061Z,749.00
2023-05-09T05:36:58.064Z,764.00
2023-05-09T05:37:58.085Z,748.00
2023-05-09T05:38:58.113Z,781.00
2023-05-09T05:39:58.217Z,817.00
2023-05-09T05:40:58.242Z,830.00
2023-05-09T05:41:58.285Z,869.00
2023-05-09T05:42:58.558Z,900.00
2023-05-09T05:43:58.386Z,934.00
2023-05-09T05:44:58.518Z,965.00
2023-05-09T05:45:58.641Z,970.00
2023-05-09T05:46:58.605Z,982.00
2023-05-09T05:47:58.690Z,978.00
2023-05-09T05:48:58.770Z,958.00
2023-05-09T05:49:58.707Z,1030.00
2023-05-09T05:50:58.775Z,1110.00
2023-05-09T05:51:58.813Z,1154.00
2023-05-09T05:52:58.825Z,1178.00
2023-05-09T05:53:58.834Z,1135.00
2023-05-09T05:54:58.848Z,1159.00
2023-05-09T05:55:58.862Z,1215.00
2023-05-09T05:56:58.887Z,1245.00
2023-05-09T05:57:59.066Z,1265.00
2023-05-09T05:58:58.936Z,1293.00
2023-05-09T05:59:58.905Z,1319.00
2023-05-09T06:00:58.909Z,1353.00
2023-05-09T06:01:58.950Z,1374.00
2023-05-09T06:02:59.166Z,1380.00
2023-05-09T06:03:59.009Z,1391.00
2023-05-09T06:04:58.986Z,1437.00
2023-05-09T06:05:58.949Z,1441.00
2023-05-09T06:06:58.957Z,1452.00
2023-05-09T06:07:58.989Z,1506.00
2023-05-09T06:08:58.984Z,1514.00
2023-05-09T06:09:58.992Z,1540.00
2023-05-09T06:10:59.003Z,1553.00
2023-05-09T06:11:59.178Z,1566.00
2023-05-09T06:12:59.135Z,1579.00
2023-05-09T06:13:59.144Z,1591.00
2023-05-09T06:14:59.195Z,1577.00
2023-05-09T06:16:07.808Z,1588.00
2023-05-09T06:17:00.313Z,1590.00
2023-05-09T06:17:59.290Z,1595.00
2023-05-09T06:18:59.227Z,1596.00
2023-05-09T06:19:59.309Z,1609.00
2023-05-09T06:20:59.298Z,1638.00
2023-05-09T06:21:59.221Z,1658.00
2023-05-09T06:22:59.220Z,1723.00
2023-05-09T06:24:08.404Z,1706.00
2023-05-09T06:25:00.184Z,1708.00
2023-05-09T06:25:59.215Z,1712.00
2023-05-09T06:26:59.174Z,1726.00
2023-05-09T06:27:59.558Z,1778.00
2023-05-09T06:28:59.222Z,1773.00
2023-05-09T06:29:59.150Z,1748.00
2023-05-09T06:30:59.180Z,1692.00
2023-05-09T06:31:59.472Z,1658.00
2023-05-09T06:32:59.217Z,1632.00
2023-05-09T06:33:59.114Z,1605.00
2023-05-09T06:34:59.178Z,1653.00
2023-05-09T06:35:59.278Z,1608.00
2023-05-09T06:36:59.375Z,1622.00
2023-05-09T06:37:59.647Z,1647.00
2023-05-09T06:38:59.565Z,1661.00
2023-05-09T06:39:59.429Z,1646.00
2023-05-09T06:40:59.497Z,1630.00
2023-05-09T06:41:59.566Z,1518.00
2023-05-09T06:42:59.610Z,1505.00
2023-05-09T06:43:59.692Z,1489.00
2023-05-09T06:44:59.815Z,1442.00
2023-05-09T06:45:59.801Z,1408.00
2023-05-09T06:46:59.825Z,1360.00
2023-05-09T06:47:59.865Z,1295.00
2023-05-09T06:48:59.855Z,1262.00
2023-05-09T06:49:59.830Z,1245.00
2023-05-09T06:50:59.843Z,1239.00
2023-05-09T06:51:59.849Z,1212.00
2023-05-09T06:52:59.916Z,1170.00
2023-05-09T06:53:59.917Z,1141.00
2023-05-09T06:54:59.854Z,1131.00
2023-05-09T06:55:59.841Z,1146.00
2023-05-09T06:57:00.045Z,1120.00
2023-05-09T06:57:59.833Z,1108.00
2023-05-09T06:58:59.881Z,1121.00
2023-05-09T06:59:59.832Z,1111.00
2023-05-09T07:00:59.840Z,1101.00
2023-05-09T07:01:59.927Z,1087.00
2023-05-09T07:02:59.861Z,1081.00
2023-05-09T07:03:59.855Z,1044.00
2023-05-09T07:04:59.930Z,1056.00
2023-05-09T07:05:59.896Z,1031.00
2023-05-09T07:06:59.884Z,1025.00
2023-05-09T07:07:59.866Z,1024.00
2023-05-09T07:09:00.060Z,1002.00
2023-05-09T07:10:10.586Z,959.00
2023-05-09T07:11:00.874Z,960.00
2023-05-09T07:11:59.856Z,963.00
2023-05-09T07:12:59.967Z,955.00
2023-05-09T07:13:59.876Z,943.00
2023-05-09T07:14:59.835Z,932.00
2023-05-09T07:16:00.054Z,933.00
2023-05-09T07:17:13.840Z,925.00
2023-05-09T07:18:00.832Z,926.00
2023-05-09T07:18:59.804Z,925.00
2023-05-09T07:19:59.817Z,909.00
2023-05-09T07:20:59.778Z,912.00
2023-05-09T07:21:59.822Z,908.00
2023-05-09T07:22:59.823Z,882.00
2023-05-09T07:23:59.857Z,890.00
2023-05-09T07:24:59.856Z,875.00
2023-05-09T07:25:59.802Z,885.00
2023-05-09T07:26:59.748Z,906.00
2023-05-09T07:27:59.793Z,896.00
2023-05-09T07:28:59.747Z,955.00
2023-05-09T07:29:59.745Z,986.00
2023-05-09T07:31:00.606Z,1050.00
2023-05-09T07:31:59.768Z,1091.00
2023-05-09T07:32:59.791Z,1119.00
2023-05-09T07:34:00.157Z,1194.00
2023-05-09T07:34:59.770Z,1179.00
2023-05-09T07:35:59.766Z,1167.00
2023-05-09T07:36:59.681Z,1161.00
2023-05-09T07:37:59.745Z,1142.00
2023-05-09T07:39:00.147Z,1097.00
2023-05-09T07:39:59.801Z,1125.00
2023-05-09T07:40:59.908Z,1034.00
2023-05-09T07:41:59.868Z,996.00
2023-05-09T07:42:59.904Z,962.00
2023-05-09T07:43:59.967Z,937.00
2023-05-09T07:44:59.920Z,946.00
2023-05-09T07:45:59.971Z,899.00
2023-05-09T07:47:00.054Z,849.00
2023-05-09T07:47:59.966Z,823.00
2023-05-09T07:48:59.990Z,770.00
2023-05-09T07:49:59.892Z,762.00
2023-05-09T07:50:59.942Z,710.00
2023-05-09T07:51:59.905Z,691.00
2023-05-09T07:52:59.892Z,730.00
2023-05-09T07:53:59.925Z,698.00
2023-05-09T07:54:59.925Z,688.00
2023-05-09T07:55:59.934Z,658.00
2023-05-09T07:57:00.020Z,654.00
2023-05-09T07:58:00.017Z,683.00
2023-05-09T07:59:00.616Z,716.00
2023-05-09T07:59:59.894Z,686.00
2023-05-09T08:00:59.874Z,739.00
2023-05-09T08:01:59.941Z,832.00
2023-05-09T08:03:00.170Z,818.00
2023-05-09T08:04:00.082Z,816.00
2023-05-09T08:05:00.111Z,789.00
2023-05-09T08:06:00.101Z,771.00
2023-05-09T08:07:00.068Z,767.00
2023-05-09T08:08:00.136Z,742.00
2023-05-09T08:09:00.225Z,711.00
2023-05-09T08:10:00.214Z,703.00
2023-05-09T08:11:00.251Z,704.00
2023-05-09T08:12:00.309Z,701.00
2023-05-09T08:13:00.491Z,683.00
2023-05-09T08:14:00.487Z,653.00
2023-05-09T08:15:00.534Z,654.00
2023-05-09T08:16:00.558Z,638.00
2023-05-09T08:17:00.605Z,651.00
2023-05-09T08:18:00.714Z,637.00
2023-05-09T08:19:00.723Z,630.00
2023-05-09T08:20:00.815Z,627.00
2023-05-09T08:21:00.924Z,624.00
2023-05-09T08:22:00.891Z,621.00
2023-05-09T08:23:00.942Z,624.00
2023-05-09T08:24:01.169Z,614.00
2023-05-09T08:25:01.074Z,612.00
2023-05-09T08:26:01.176Z,632.00
2023-05-09T08:27:01.176Z,665.00
2023-05-09T08:28:01.233Z,679.00
2023-05-09T08:29:01.742Z,632.00
2023-05-09T08:30:01.377Z,621.00
2023-05-09T08:31:01.439Z,604.00
2023-05-09T08:32:01.463Z,606.00
2023-05-09T08:33:01.557Z,597.00
2023-05-09T08:34:01.494Z,596.00
2023-05-09T08:35:01.563Z,591.00
2023-05-09T08:36:01.527Z,592.00
2023-05-09T08:37:01.555Z,562.00
2023-05-09T08:38:01.615Z,555.00
2023-05-09T08:39:01.672Z,553.00
2023-05-09T08:40:01.621Z,548.00
2023-05-09T08:41:01.558Z,541.00
2023-05-09T08:42:01.566Z,624.00
2023-05-09T08:43:01.575Z,711.00
2023-05-09T08:44:01.548Z,763.00
2023-05-09T08:45:01.681Z,778.00
2023-05-09T08:46:01.720Z,786.00
2023-05-09T08:47:01.786Z,783.00
2023-05-09T08:48:01.738Z,781.00
2023-05-09T08:49:01.792Z,780.00
2023-05-09T08:50:02.142Z,780.00
2023-05-09T08:51:01.804Z,787.00
2023-05-09T08:52:01.939Z,773.00
2023-05-09T08:53:01.925Z,771.00
2023-05-09T08:54:02.164Z,797.00
2023-05-09T08:55:02.022Z,796.00
2023-05-09T08:56:02.078Z,753.00
2023-05-09T08:57:02.137Z,723.00
2023-05-09T08:58:02.192Z,756.00
2023-05-09T08:59:02.642Z,710.00
2023-05-09T09:00:02.314Z,679.00
2023-05-09T09:01:02.433Z,673.00
2023-05-09T09:02:02.510Z,663.00
2023-05-09T09:03:02.546Z,662.00
2023-05-09T09:04:02.527Z,664.00
2023-05-09T09:05:02.653Z,658.00
2023-05-09T09:06:02.656Z,664.00
2023-05-09T09:07:02.685Z,669.00
2023-05-09T09:08:02.747Z,652.00
2023-05-09T09:09:02.847Z,679.00
2023-05-09T09:10:02.866Z,691.00
2023-05-09T09:11:02.920Z,720.00
2023-05-09T09:12:02.979Z,768.00
2023-05-09T09:13:03.066Z,706.00
2023-05-09T09:14:03.112Z,690.00
2023-05-09T09:15:03.172Z,678.00
2023-05-09T09:16:03.206Z,676.00
2023-05-09T09:17:03.326Z,674.00
2023-05-09T09:18:04.314Z,773.00
2023-05-09T09:19:03.535Z,738.00
2023-05-09T09:20:03.539Z,770.00
2023-05-09T09:21:03.751Z,802.00
2023-05-09T09:22:03.680Z,780.00
2023-05-09T09:23:03.670Z,745.00
2023-05-09T09:24:03.715Z,764.00
2023-05-09T09:25:03.775Z,709.00
2023-05-09T09:26:03.797Z,742.00
2023-05-09T09:27:03.869Z,759.00
2023-05-09T09:28:03.892Z,725.00
2023-05-09T09:29:03.933Z,745.00
2023-05-09T09:30:04.021Z,760.00
2023-05-09T09:31:04.020Z,738.00
2023-05-09T09:32:04.143Z,772.00
2023-05-09T09:33:04.245Z,740.00
2023-05-09T09:34:04.154Z,759.00
2023-05-09T09:35:04.174Z,790.00
2023-05-09T09:36:04.154Z,749.00
2023-05-09T09:37:04.225Z,654.00
2023-05-09T09:38:04.225Z,642.00
2023-05-09T09:39:04.292Z,633.00
2023-05-09T09:40:04.305Z,630.00
2023-05-09T09:41:04.386Z,601.00
2023-05-09T09:42:04.429Z,592.00
2023-05-09T09:43:04.490Z,593.00
2023-05-09T09:44:04.489Z,566.00
2023-05-09T09:45:04.564Z,568.00
2023-05-09T09:46:04.686Z,581.00
2023-05-09T09:47:04.646Z,561.00
2023-05-09T09:48:04.765Z,508.00
2023-05-09T09:49:04.859Z,523.00
2023-05-09T09:50:04.817Z,527.00
2023-05-09T09:51:04.895Z,505.00
2023-05-09T09:52:04.965Z,498.00
2023-05-09T09:53:05.167Z,500.00
2023-05-09T09:54:05.045Z,509.00
2023-05-09T09:55:05.120Z,498.00
2023-05-09T09:56:05.163Z,499.00
2023-05-09T09:57:05.218Z,502.00
2023-05-09T09:58:05.262Z,535.00
2023-05-09T09:59:05.345Z,496.00
2023-05-09T10:00:05.416Z,516.00
2023-05-09T10:01:05.514Z,554.00
2023-05-09T10:02:07.994Z,552.00
2023-05-09T10:03:05.682Z,511.00
2023-05-09T10:04:05.558Z,518.00
2023-05-09T10:05:05.548Z,532.00
2023-05-09T10:06:05.511Z,541.00
2023-05-09T10:07:05.476Z,539.00
2023-05-09T10:08:05.454Z,618.00
2023-05-09T10:09:05.499Z,563.00
2023-05-09T10:10:05.440Z,521.00
2023-05-09T10:11:05.464Z,536.00
2023-05-09T10:12:05.440Z,551.00
2023-05-09T10:13:05.440Z,571.00
2023-05-09T10:14:05.477Z,523.00
2023-05-09T10:15:05.428Z,512.00
2023-05-09T10:16:05.540Z,505.00
2023-05-09T10:17:05.740Z,504.00
2023-05-09T10:18:05.637Z,516.00
2023-05-09T10:19:05.496Z,510.00
2023-05-09T10:20:05.372Z,524.00
2023-05-09T10:21:05.635Z,501.00
2023-05-09T10:22:05.350Z,546.00
2023-05-09T10:23:05.359Z,562.00
2023-05-09T10:24:05.457Z,548.00
2023-05-09T10:25:05.335Z,559.00
2023-05-09T10:26:05.318Z,591.00
2023-05-09T10:27:05.377Z,637.00
2023-05-09T10:28:05.303Z,653.00
2023-05-09T10:29:05.380Z,784.00
2023-05-09T10:30:05.297Z,891.00
2023-05-09T10:31:06.490Z,938.00
2023-05-09T10:32:05.296Z,972.00
2023-05-09T10:33:05.333Z,1000.00
2023-05-09T10:34:05.267Z,1034.00
2023-05-09T10:35:05.299Z,1069.00
2023-05-09T10:36:05.298Z,1075.00
2023-05-09T10:37:05.314Z,1077.00
2023-05-09T10:38:05.240Z,1090.00
2023-05-09T10:39:05.231Z,1061.00
2023-05-09T10:40:05.367Z,1077.00
2023-05-09T10:41:05.210Z,1076.00
2023-05-09T10:42:05.222Z,1019.00
2023-05-09T10:43:05.220Z,1050.00
2023-05-09T10:44:05.196Z,1006.00
2023-05-09T10:45:05.253Z,1019.00
2023-05-09T10:46:05.337Z,1061.00
2023-05-09T10:47:05.269Z,1063.00
2023-05-09T10:48:05.221Z,1006.00
2023-05-09T10:49:05.193Z,930.00
2023-05-09T10:50:05.184Z,929.00
2023-05-09T10:51:05.162Z,923.00
2023-05-09T10:52:05.151Z,940.00
2023-05-09T10:53:05.144Z,951.00
2023-05-09T10:54:05.139Z,941.00
2023-05-09T10:55:05.125Z,970.00
2023-05-09T10:56:05.135Z,977.00
2023-05-09T10:57:05.090Z,890.00
2023-05-09T10:58:05.105Z,858.00
2023-05-09T10:59:05.095Z,919.00
2023-05-09T11:00:05.126Z,910.00
2023-05-09T11:01:05.077Z,758.00
2023-05-09T11:02:05.124Z,813.00
2023-05-09T11:03:05.183Z,763.00
2023-05-09T11:04:05.068Z,720.00
2023-05-09T11:05:05.144Z,803.00
2023-05-09T11:06:05.036Z,734.00
2023-05-09T11:07:05.036Z,652.00
2023-05-09T11:08:05.033Z,640.00
2023-05-09T11:09:05.092Z,614.00
2023-05-09T11:10:05.041Z,610.00
2023-05-09T11:11:05.129Z,585.00
2023-05-09T11:12:05.248Z,584.00
2023-05-09T11:13:05.226Z,568.00
2023-05-09T11:14:05.256Z,572.00
2023-05-09T11:15:05.328Z,565.00
2023-05-09T11:16:05.389Z,536.00
2023-05-09T11:17:05.394Z,516.00
2023-05-09T11:18:05.501Z,553.00
2023-05-09T11:19:05.481Z,539.00
2023-05-09T11:20:05.761Z,462.00
2023-05-09T11:21:05.602Z,500.00
2023-05-09T11:22:05.645Z,557.00
2023-05-09T11:23:05.730Z,540.00
2023-05-09T11:24:05.811Z,485.00
2023-05-09T11:25:05.952Z,527.00
2023-05-09T11:26:05.877Z,547.00
2023-05-09T11:27:05.942Z,516.00
2023-05-09T11:28:05.981Z,567.00
2023-05-09T11:29:06.045Z,590.00
2023-05-09T11:30:06.106Z,610.00
2023-05-09T11:31:06.264Z,594.00
2023-05-09T11:32:06.273Z,580.00
2023-05-09T11:33:06.281Z,500.00
2023-05-09T11:34:06.301Z,505.00
2023-05-09T11:35:06.366Z,510.00
2023-05-09T11:36:06.407Z,532.00
2023-05-09T11:37:06.450Z,534.00
2023-05-09T11:38:06.554Z,500.00
2023-05-09T11:39:06.660Z,508.00
2023-05-09T11:40:06.616Z,531.00
2023-05-09T11:41:06.744Z,506.00
2023-05-09T11:42:06.697Z,531.00
2023-05-09T11:43:06.765Z,555.00
2023-05-09T11:44:06.804Z,549.00
2023-05-09T11:45:06.850Z,564.00
2023-05-09T11:46:06.921Z,500.00
2023-05-09T11:47:06.955Z,508.00
2023-05-09T11:48:07.051Z,497.00
2023-05-09T11:49:07.024Z,502.00
2023-05-09T11:50:07.089Z,517.00
2023-05-09T11:51:07.124Z,547.00
2023-05-09T11:52:07.170Z,550.00
2023-05-09T11:53:07.214Z,525.00
2023-05-09T11:54:07.252Z,515.00
2023-05-09T11:55:07.358Z,516.00
2023-05-09T11:56:07.341Z,531.00
2023-05-09T11:57:07.464Z,500.00
2023-05-09T11:58:07.392Z,519.00
2023-05-09T11:59:07.481Z,536.00
2023-05-09T12:00:07.501Z,514.00
2023-05-09T12:01:08.459Z,469.00
2023-05-09T12:02:07.721Z,519.00
2023-05-09T12:03:07.698Z,511.00
2023-05-09T12:04:07.661Z,509.00
2023-05-09T12:05:07.695Z,507.00
2023-05-09T12:06:07.770Z,525.00
2023-05-09T12:07:07.778Z,541.00
2023-05-09T12:08:07.831Z,549.00
2023-05-09T12:09:07.883Z,500.00
2023-05-09T12:10:07.945Z,535.00
2023-05-09T12:11:07.942Z,499.00
2023-05-09T12:12:07.982Z,507.00
2023-05-09T12:13:08.198Z,545.00
2023-05-09T12:14:08.108Z,556.00
2023-05-09T12:15:08.262Z,548.00
2023-05-09T12:16:08.201Z,546.00
2023-05-09T12:17:08.186Z,530.00
2023-05-09T12:18:08.483Z,558.00
2023-05-09T12:19:08.309Z,400.00
2023-05-09T12:20:08.344Z,400.00
2023-05-09T12:21:08.387Z,400.00
2023-05-09T12:22:08.423Z,518.00
2023-05-09T12:23:08.492Z,605.00
2023-05-09T12:24:08.550Z,648.00
2023-05-09T12:25:08.606Z,500.00
2023-05-09T12:26:08.654Z,403.00